C2015 KOPF-KLAL
Flight info
| Callsign | C2015 |
|---|---|
| Flight time | N/A |
| Altitude | 2200 |
| Route | VFR OPR |
| Aircraft | C30J/M-SDGRY/LB1 |
Departure
| Time | N/A |
|---|---|
| Airport | Miami-Opa Locka Executive Airport (KOPF) |
Arrival
| Time | 2026-04-26 21:09 |
|---|---|
| Airport | Lakeland Linder International Airport (KLAL) |
| Time | Latitude | Longitude | Altitude | Speed | Heading |
|---|---|---|---|---|---|
| 2026-04-26 20:22 | 27.65846 | -81.27828 | 2143 ft | 160 kts | 184° |
| 2026-04-26 20:22 | 27.64929 | -81.28316 | 2144 ft | 148 kts | 238° |
| 2026-04-26 20:23 | 27.64844 | -81.29387 | 2138 ft | 142 kts | 296° |
| 2026-04-26 20:23 | 27.65671 | -81.29996 | 2129 ft | 156 kts | 353° |
| 2026-04-26 20:23 | 27.66681 | -81.29509 | 2138 ft | 168 kts | 48° |
| 2026-04-26 20:23 | 27.66966 | -81.28270 | 2133 ft | 169 kts | 105° |
| 2026-04-26 20:24 | 27.66281 | -81.27279 | 2139 ft | 159 kts | 159° |
| 2026-04-26 20:24 | 27.65243 | -81.27336 | 2121 ft | 149 kts | 218° |
| 2026-04-26 20:24 | 27.64770 | -81.28310 | 2126 ft | 149 kts | 271° |
| 2026-04-26 20:24 | 27.65267 | -81.29294 | 2133 ft | 154 kts | 327° |
| 2026-04-26 20:25 | 27.66329 | -81.29354 | 2145 ft | 165 kts | 22° |
| 2026-04-26 20:25 | 27.66659 | -81.29111 | 2139 ft | 169 kts | 39° |
| 2026-04-26 20:25 | 27.66807 | -81.27118 | 2140 ft | 166 kts | 134° |
| 2026-04-26 20:25 | 27.65830 | -81.26615 | 2135 ft | 156 kts | 187° |
| 2026-04-26 20:26 | 27.64987 | -81.27207 | 2119 ft | 146 kts | 245° |
| 2026-04-26 20:26 | 27.65010 | -81.28337 | 2129 ft | 150 kts | 301° |
| 2026-04-26 20:26 | 27.65909 | -81.28934 | 2134 ft | 159 kts | 355° |
| 2026-04-26 20:26 | 27.66896 | -81.28421 | 2129 ft | 168 kts | 52° |
| 2026-04-26 20:27 | 27.67145 | -81.27158 | 2137 ft | 172 kts | 106° |
| 2026-04-26 20:27 | 27.66430 | -81.26167 | 2144 ft | 164 kts | 161° |
| 2026-04-26 20:27 | 27.65391 | -81.26227 | 2120 ft | 149 kts | 218° |
| 2026-04-26 20:27 | 27.64941 | -81.27197 | 2123 ft | 145 kts | 274° |
| 2026-04-26 20:28 | 27.65204 | -81.27923 | 2137 ft | 154 kts | 310° |
| 2026-04-26 20:28 | 27.66178 | -81.28346 | 2122 ft | 158 kts | 4° |
| 2026-04-26 20:28 | 27.67086 | -81.27632 | 2152 ft | 169 kts | 61° |
| 2026-04-26 20:28 | 27.67154 | -81.26356 | 2122 ft | 165 kts | 117° |
| 2026-04-26 20:29 | 27.66316 | -81.25568 | 2138 ft | 161 kts | 173° |
| 2026-04-26 20:29 | 27.65273 | -81.25805 | 2148 ft | 154 kts | 212° |
| 2026-04-26 20:29 | 27.64430 | -81.26494 | 2168 ft | 149 kts | 224° |
| 2026-04-26 20:29 | 27.63709 | -81.27345 | 2162 ft | 151 kts | 232° |
| 2026-04-26 20:30 | 27.63044 | -81.28245 | 2165 ft | 147 kts | 235° |
| 2026-04-26 20:30 | 27.62564 | -81.29260 | 2164 ft | 149 kts | 256° |
| 2026-04-26 20:30 | 27.62400 | -81.30395 | 2152 ft | 149 kts | 265° |
| 2026-04-26 20:30 | 27.62324 | -81.31555 | 2161 ft | 147 kts | 266° |
| 2026-04-26 20:31 | 27.62264 | -81.32678 | 2164 ft | 141 kts | 267° |
| 2026-04-26 20:31 | 27.62207 | -81.33753 | 1932 ft | 137 kts | 268° |
| 2026-04-26 20:31 | 27.62148 | -81.34828 | 1559 ft | 139 kts | 266° |
| 2026-04-26 20:31 | 27.62191 | -81.35833 | 1428 ft | 121 kts | 287° |
| 2026-04-26 20:32 | 27.62618 | -81.36760 | 1484 ft | 144 kts | 302° |
| 2026-04-26 20:32 | 27.63425 | -81.37445 | 1484 ft | 154 kts | 336° |
| 2026-04-26 20:32 | 27.64489 | -81.37662 | 1454 ft | 153 kts | 351° |
| 2026-04-26 20:32 | 27.65567 | -81.37643 | 1467 ft | 159 kts | 7° |
| 2026-04-26 20:33 | 27.66495 | -81.37014 | 1442 ft | 161 kts | 57° |
| 2026-04-26 20:33 | 27.66770 | -81.35747 | 1462 ft | 170 kts | 102° |
| 2026-04-26 20:33 | 27.66141 | -81.34721 | 1472 ft | 161 kts | 155° |
| 2026-04-26 20:33 | 27.65073 | -81.34491 | 1467 ft | 152 kts | 192° |
| 2026-04-26 20:34 | 27.64169 | -81.35035 | 1462 ft | 150 kts | 233° |
| 2026-04-26 20:34 | 27.63657 | -81.36004 | 1479 ft | 144 kts | 248° |
| 2026-04-26 20:34 | 27.63277 | -81.37077 | 1535 ft | 152 kts | 259° |
| 2026-04-26 20:34 | 27.63369 | -81.38236 | 1431 ft | 163 kts | 292° |
| 2026-04-26 20:35 | 27.63995 | -81.39412 | 1389 ft | 176 kts | 307° |
| 2026-04-26 20:35 | 27.64882 | -81.40288 | 1364 ft | 175 kts | 328° |
| 2026-04-26 20:35 | 27.66100 | -81.40751 | 1370 ft | 191 kts | 347° |
| 2026-04-26 20:35 | 27.67342 | -81.40911 | 1337 ft | 172 kts | 356° |
| 2026-04-26 20:36 | 27.68591 | -81.40937 | 1354 ft | 189 kts | 357° |
| 2026-04-26 20:36 | 27.69908 | -81.40927 | 1498 ft | 190 kts | 359° |
| 2026-04-26 20:36 | 27.71248 | -81.40881 | 1471 ft | 190 kts | 359° |
| 2026-04-26 20:36 | 27.72538 | -81.40737 | 1438 ft | 180 kts | 2° |
| 2026-04-26 20:37 | 27.73714 | -81.40649 | 1442 ft | 159 kts | 357° |
| 2026-04-26 20:37 | 27.74752 | -81.40598 | 1287 ft | 142 kts | 358° |
| 2026-04-26 20:37 | 27.75806 | -81.40382 | 1380 ft | 173 kts | 14° |
| 2026-04-26 20:37 | 27.76926 | -81.39634 | 1499 ft | 200 kts | 39° |
| 2026-04-26 20:38 | 27.77599 | -81.38389 | 1493 ft | 177 kts | 71° |
| 2026-04-26 20:38 | 27.77696 | -81.37094 | 1408 ft | 158 kts | 99° |
| 2026-04-26 20:38 | 27.77414 | -81.36015 | 1435 ft | 138 kts | 123° |
| 2026-04-26 20:38 | 27.76698 | -81.35079 | 1439 ft | 182 kts | 144° |
| 2026-04-26 20:39 | 27.75553 | -81.34425 | 1488 ft | 178 kts | 171° |
| 2026-04-26 20:39 | 27.74413 | -81.34321 | 1438 ft | 155 kts | 184° |
| 2026-04-26 20:39 | 27.73317 | -81.34397 | 1457 ft | 157 kts | 188° |
| 2026-04-26 20:39 | 27.72226 | -81.34525 | 1460 ft | 158 kts | 191° |
| 2026-04-26 20:40 | 27.71160 | -81.34610 | 1438 ft | 147 kts | 194° |
| 2026-04-26 20:40 | 27.70091 | -81.34771 | 1502 ft | 166 kts | 187° |
| 2026-04-26 20:40 | 27.68995 | -81.34831 | 1416 ft | 148 kts | 195° |
| 2026-04-26 20:40 | 27.67971 | -81.34964 | 1458 ft | 158 kts | 189° |
| 2026-04-26 20:41 | 27.66835 | -81.34994 | 1474 ft | 162 kts | 190° |
| 2026-04-26 20:41 | 27.65764 | -81.35076 | 1414 ft | 154 kts | 187° |
| 2026-04-26 20:41 | 27.64706 | -81.35192 | 1399 ft | 150 kts | 205° |
| 2026-04-26 20:41 | 27.63998 | -81.36015 | 1436 ft | 148 kts | 249° |
| 2026-04-26 20:42 | 27.63718 | -81.37127 | 1485 ft | 158 kts | 260° |
| 2026-04-26 20:42 | 27.63548 | -81.38303 | 1461 ft | 145 kts | 262° |
| 2026-04-26 20:42 | 27.63398 | -81.39444 | 1437 ft | 143 kts | 264° |
| 2026-04-26 20:42 | 27.63262 | -81.40583 | 1462 ft | 144 kts | 263° |
| 2026-04-26 20:43 | 27.63101 | -81.41724 | 1426 ft | 141 kts | 263° |
| 2026-04-26 20:43 | 27.62973 | -81.42869 | 1475 ft | 148 kts | 263° |
| 2026-04-26 20:43 | 27.62835 | -81.43980 | 1462 ft | 148 kts | 262° |
| 2026-04-26 20:43 | 27.62723 | -81.45105 | 1454 ft | 138 kts | 264° |
| 2026-04-26 20:44 | 27.62628 | -81.46188 | 1447 ft | 141 kts | 265° |
| 2026-04-26 20:44 | 27.62493 | -81.47325 | 1455 ft | 149 kts | 262° |
| 2026-04-26 20:44 | 27.62361 | -81.48441 | 1489 ft | 140 kts | 263° |
| 2026-04-26 20:44 | 27.62256 | -81.49524 | 1462 ft | 144 kts | 264° |
| 2026-04-26 20:45 | 27.62123 | -81.50674 | 1486 ft | 149 kts | 262° |
| 2026-04-26 20:45 | 27.61998 | -81.51762 | 1429 ft | 136 kts | 264° |
| 2026-04-26 20:45 | 27.61886 | -81.52879 | 1475 ft | 151 kts | 262° |
| 2026-04-26 20:45 | 27.61771 | -81.53990 | 1454 ft | 139 kts | 264° |
| 2026-04-26 20:46 | 27.61652 | -81.55113 | 1488 ft | 147 kts | 263° |
| 2026-04-26 20:46 | 27.61530 | -81.56234 | 1464 ft | 144 kts | 263° |
| 2026-04-26 20:46 | 27.61407 | -81.57341 | 1441 ft | 140 kts | 264° |
| 2026-04-26 20:46 | 27.61296 | -81.58476 | 1489 ft | 142 kts | 263° |
| 2026-04-26 20:47 | 27.61152 | -81.59622 | 1466 ft | 149 kts | 263° |
| 2026-04-26 20:47 | 27.61067 | -81.60367 | 1460 ft | 145 kts | 264° |
| 2026-04-26 20:47 | 27.60894 | -81.61858 | 1446 ft | 142 kts | 264° |
| 2026-04-26 20:47 | 27.60745 | -81.63024 | 1472 ft | 148 kts | 262° |
| 2026-04-26 20:48 | 27.60608 | -81.64162 | 1459 ft | 146 kts | 264° |
| 2026-04-26 20:48 | 27.60458 | -81.65351 | 1484 ft | 152 kts | 263° |
| 2026-04-26 20:48 | 27.60313 | -81.66511 | 1492 ft | 150 kts | 264° |
| 2026-04-26 20:48 | 27.60173 | -81.67602 | 1488 ft | 142 kts | 263° |
| 2026-04-26 20:49 | 27.60029 | -81.68695 | 1479 ft | 136 kts | 263° |
| 2026-04-26 20:49 | 27.59896 | -81.69797 | 1517 ft | 140 kts | 263° |
| 2026-04-26 20:49 | 27.59769 | -81.70893 | 1488 ft | 148 kts | 263° |
| 2026-04-26 20:49 | 27.59627 | -81.72023 | 1478 ft | 142 kts | 264° |
| 2026-04-26 20:50 | 27.59507 | -81.73106 | 1489 ft | 140 kts | 264° |
| 2026-04-26 20:50 | 27.59364 | -81.74264 | 1499 ft | 149 kts | 261° |
| 2026-04-26 20:50 | 27.59242 | -81.75378 | 1498 ft | 148 kts | 262° |
| 2026-04-26 20:50 | 27.59120 | -81.76516 | 1484 ft | 141 kts | 264° |
| 2026-04-26 20:51 | 27.59011 | -81.77582 | 1470 ft | 134 kts | 265° |
| 2026-04-26 20:51 | 27.58877 | -81.78674 | 1502 ft | 142 kts | 263° |
| 2026-04-26 20:51 | 27.58742 | -81.79756 | 1501 ft | 137 kts | 262° |
| 2026-04-26 20:51 | 27.58626 | -81.80822 | 1478 ft | 138 kts | 263° |
| 2026-04-26 20:52 | 27.58511 | -81.81912 | 1492 ft | 141 kts | 265° |
| 2026-04-26 20:52 | 27.58394 | -81.83025 | 1486 ft | 151 kts | 264° |
| 2026-04-26 20:52 | 27.58237 | -81.84183 | 1463 ft | 146 kts | 261° |
| 2026-04-26 20:52 | 27.58118 | -81.85284 | 1499 ft | 145 kts | 264° |
| 2026-04-26 20:53 | 27.58006 | -81.86395 | 1483 ft | 145 kts | 264° |
| 2026-04-26 20:53 | 27.57867 | -81.87526 | 1517 ft | 141 kts | 263° |
| 2026-04-26 20:53 | 27.57753 | -81.88643 | 1491 ft | 151 kts | 264° |
| 2026-04-26 20:53 | 27.57619 | -81.89753 | 1490 ft | 139 kts | 264° |
| 2026-04-26 20:54 | 27.57489 | -81.90853 | 1526 ft | 151 kts | 263° |
| 2026-04-26 20:54 | 27.57330 | -81.92020 | 1505 ft | 143 kts | 265° |
| 2026-04-26 20:54 | 27.57187 | -81.93093 | 1486 ft | 141 kts | 264° |
| 2026-04-26 20:54 | 27.57039 | -81.94209 | 1450 ft | 143 kts | 262° |
| 2026-04-26 20:55 | 27.56879 | -81.95310 | 1502 ft | 144 kts | 262° |
| 2026-04-26 20:55 | 27.56702 | -81.96440 | 1503 ft | 139 kts | 262° |
| 2026-04-26 20:55 | 27.56555 | -81.97538 | 1520 ft | 146 kts | 264° |
| 2026-04-26 20:55 | 27.56419 | -81.98631 | 1485 ft | 137 kts | 273° |
| 2026-04-26 20:56 | 27.56890 | -81.99530 | 1462 ft | 132 kts | 325° |
| 2026-04-26 20:56 | 27.57837 | -81.99832 | 1493 ft | 150 kts | 346° |
| 2026-04-26 20:56 | 27.58886 | -81.99920 | 1514 ft | 154 kts | 349° |
| 2026-04-26 20:56 | 27.59946 | -81.99964 | 1478 ft | 147 kts | 352° |
| 2026-04-26 20:57 | 27.60997 | -81.99978 | 1519 ft | 157 kts | 353° |
| 2026-04-26 20:57 | 27.62075 | -82.00012 | 1486 ft | 144 kts | 353° |
| 2026-04-26 20:57 | 27.63095 | -82.00015 | 1526 ft | 157 kts | 354° |
| 2026-04-26 20:57 | 27.64201 | -82.00079 | 1480 ft | 161 kts | 351° |
| 2026-04-26 20:58 | 27.65306 | -82.00109 | 1486 ft | 166 kts | 354° |
| 2026-04-26 20:58 | 27.66405 | -82.00154 | 1496 ft | 152 kts | 353° |
| 2026-04-26 20:58 | 27.67474 | -82.00177 | 1452 ft | 152 kts | 354° |
| 2026-04-26 20:58 | 27.68530 | -82.00211 | 1490 ft | 147 kts | 353° |
| 2026-04-26 20:59 | 27.69602 | -82.00275 | 1508 ft | 157 kts | 351° |
| 2026-04-26 20:59 | 27.70725 | -82.00344 | 1498 ft | 159 kts | 351° |
| 2026-04-26 20:59 | 27.71761 | -82.00382 | 1478 ft | 153 kts | 351° |
| 2026-04-26 20:59 | 27.72885 | -82.00434 | 1497 ft | 163 kts | 354° |
| 2026-04-26 21:00 | 27.73988 | -82.00481 | 1521 ft | 158 kts | 353° |
| 2026-04-26 21:00 | 27.75067 | -82.00533 | 1491 ft | 151 kts | 353° |
| 2026-04-26 21:00 | 27.76124 | -82.00582 | 1478 ft | 152 kts | 352° |
| 2026-04-26 21:00 | 27.77237 | -82.00638 | 1524 ft | 163 kts | 352° |
| 2026-04-26 21:01 | 27.78323 | -82.00689 | 1455 ft | 153 kts | 352° |
| 2026-04-26 21:01 | 27.79367 | -82.00722 | 1479 ft | 145 kts | 353° |
| 2026-04-26 21:01 | 27.80410 | -82.00748 | 1505 ft | 155 kts | 351° |
| 2026-04-26 21:01 | 27.81479 | -82.00774 | 1527 ft | 148 kts | 352° |
| 2026-04-26 21:02 | 27.82526 | -82.00818 | 1481 ft | 163 kts | 352° |
| 2026-04-26 21:02 | 27.83621 | -82.00853 | 1511 ft | 150 kts | 355° |
| 2026-04-26 21:02 | 27.84681 | -82.00879 | 1504 ft | 158 kts | 352° |
| 2026-04-26 21:02 | 27.85777 | -82.00924 | 1489 ft | 152 kts | 353° |
| 2026-04-26 21:03 | 27.86835 | -82.00966 | 1479 ft | 158 kts | 352° |
| 2026-04-26 21:03 | 27.87921 | -82.01004 | 1471 ft | 156 kts | 351° |
| 2026-04-26 21:03 | 27.88980 | -82.01035 | 1464 ft | 150 kts | 352° |
| 2026-04-26 21:03 | 27.90056 | -82.01063 | 1490 ft | 156 kts | 353° |
| 2026-04-26 21:04 | 27.91125 | -82.01118 | 1488 ft | 151 kts | 352° |
| 2026-04-26 21:04 | 27.92160 | -82.01143 | 1487 ft | 151 kts | 353° |
| 2026-04-26 21:04 | 27.93214 | -82.01188 | 1513 ft | 156 kts | 354° |
| 2026-04-26 21:04 | 27.94293 | -82.01244 | 1493 ft | 155 kts | 353° |
| 2026-04-26 21:05 | 27.95339 | -82.01308 | 1452 ft | 155 kts | 353° |
| 2026-04-26 21:05 | 27.96443 | -82.01324 | 1441 ft | 164 kts | 5° |
| 2026-04-26 21:05 | 27.97370 | -82.00607 | 1496 ft | 172 kts | 57° |
| 2026-04-26 21:05 | 27.97689 | -81.99403 | 1480 ft | 154 kts | 84° |
| 2026-04-26 21:06 | 27.97689 | -81.98088 | 1497 ft | 179 kts | 92° |
| 2026-04-26 21:06 | 27.97616 | -81.96722 | 1462 ft | 175 kts | 92° |
| 2026-04-26 21:06 | 27.97771 | -81.95404 | 1443 ft | 161 kts | 43° |
| 2026-04-26 21:06 | 27.98778 | -81.95054 | 1342 ft | 164 kts | 341° |
| 2026-04-26 21:07 | 27.99424 | -81.95919 | 1261 ft | 155 kts | 269° |
| 2026-04-26 21:07 | 27.99088 | -81.97085 | 818 ft | 151 kts | 250° |
| 2026-04-26 21:07 | 27.98874 | -81.98115 | 686 ft | 124 kts | 273° |
| 2026-04-26 21:07 | 27.98941 | -81.99101 | 479 ft | 126 kts | 271° |
| 2026-04-26 21:08 | 27.98937 | -82.00033 | 277 ft | 112 kts | 270° |
| 2026-04-26 21:08 | 27.98937 | -82.00906 | 188 ft | 106 kts | 269° |
| 2026-04-26 21:08 | 27.98931 | -82.01692 | 149 ft | 92 kts | 270° |
| 2026-04-26 21:08 | 27.98929 | -82.02294 | 147 ft | 80 kts | 269° |
| 2026-04-26 21:09 | 27.98926 | -82.02909 | 146 ft | 60 kts | 270° |
| 2026-04-26 21:09 | 27.98921 | -82.03292 | 147 ft | 22 kts | 257° |
| 2026-04-26 21:09 | 27.98859 | -82.03355 | 147 ft | 12 kts | 181° |
| 2026-04-26 21:09 | 27.98816 | -82.03323 | 146 ft | 11 kts | 107° |
| 2026-04-26 21:10 | 27.98815 | -82.03218 | 146 ft | 16 kts | 89° |
| 2026-04-26 21:10 | 27.98817 | -82.03088 | 146 ft | 18 kts | 90° |
| 2026-04-26 21:10 | 27.98815 | -82.02915 | 146 ft | 21 kts | 88° |
| 2026-04-26 21:10 | 27.98813 | -82.02731 | 145 ft | 26 kts | 93° |
| 2026-04-26 21:11 | 27.98814 | -82.02577 | 146 ft | 19 kts | 89° |
| 2026-04-26 21:11 | 27.98818 | -82.02441 | 145 ft | 17 kts | 88° |
| 2026-04-26 21:11 | 27.98819 | -82.02361 | 146 ft | 0 kts | 89° |
| 2026-04-26 21:11 | 27.98814 | -82.02308 | 146 ft | 5 kts | 125° |
| 2026-04-26 21:12 | 27.98753 | -82.02295 | 146 ft | 10 kts | 172° |
| 2026-04-26 21:12 | 27.98733 | -82.02260 | 146 ft | 11 kts | 97° |
| 2026-04-26 21:12 | 27.98730 | -82.02155 | 146 ft | 12 kts | 89° |
| 2026-04-26 21:12 | 27.98731 | -82.02056 | 146 ft | 18 kts | 89° |
| 2026-04-26 21:13 | 27.98731 | -82.01960 | 146 ft | 20 kts | 91° |
| 2026-04-26 21:13 | 27.98731 | -82.01805 | 146 ft | 17 kts | 90° |
| 2026-04-26 21:13 | 27.98730 | -82.01681 | 148 ft | 3 kts | 90° |
| 2026-04-26 21:13 | 27.98728 | -82.01653 | 148 ft | 6 kts | 109° |
| 2026-04-26 21:14 | 27.98724 | -82.01626 | 149 ft | 3 kts | 68° |
| 2026-04-26 21:14 | 27.98724 | -82.01604 | 149 ft | 5 kts | 101° |
| 2026-04-26 21:14 | 27.98721 | -82.01588 | 149 ft | 1 kts | 37° |
| 2026-04-26 21:14 | 27.98733 | -82.01580 | 149 ft | 1 kts | 353° |
| 2026-04-26 21:15 | 27.98735 | -82.01584 | 149 ft | 0 kts | 314° |
| 2026-04-26 21:15 | 27.98734 | -82.01583 | 149 ft | 1 kts | 315° |
| 2026-04-26 21:42 | 27.98735 | -82.01583 | 149 ft | 0 kts | 315° |
| 2026-04-26 22:03 | 27.98735 | -82.01584 | 149 ft | 0 kts | 315° |